createdAt,value
2019-02-12T00:01:07.589Z,2.00
2019-02-12T00:05:12.618Z,1.92
2019-02-12T00:09:17.359Z,2.25
2019-02-12T00:13:21.941Z,2.37
2019-02-12T00:17:26.460Z,2.10
2019-02-12T00:21:30.985Z,1.92
2019-02-12T00:25:35.476Z,2.00
2019-02-12T00:29:39.998Z,2.10
2019-02-12T00:33:44.556Z,2.83
2019-02-12T00:37:49.088Z,2.20
2019-02-12T00:41:53.636Z,1.70
2019-02-12T00:45:58.133Z,2.10
2019-02-12T00:50:02.678Z,2.58
2019-02-12T00:54:07.211Z,2.25
2019-02-12T00:58:11.723Z,1.97
2019-02-12T01:02:16.249Z,2.30
2019-02-12T01:06:20.803Z,1.62
2019-02-12T01:10:25.358Z,2.60
2019-02-12T01:14:29.881Z,1.90
2019-02-12T01:18:34.451Z,2.15
2019-02-12T01:22:39.059Z,2.12
2019-02-12T01:26:43.598Z,2.33
2019-02-12T01:30:48.141Z,2.25
2019-02-12T01:34:52.665Z,2.00
2019-02-12T01:38:57.206Z,2.05
2019-02-12T01:43:01.704Z,2.00
2019-02-12T01:47:06.235Z,2.20
2019-02-12T01:51:10.763Z,2.17
2019-02-12T01:55:15.287Z,2.05
2019-02-12T01:59:19.831Z,2.45
2019-02-12T02:03:24.494Z,2.55
2019-02-12T02:07:29.283Z,2.20
2019-02-12T02:11:33.810Z,2.27
2019-02-12T02:15:38.358Z,2.30
2019-02-12T02:19:42.899Z,2.65
2019-02-12T02:23:47.499Z,2.00
2019-02-12T02:27:52.059Z,2.10
2019-02-12T02:31:56.590Z,1.80
2019-02-12T02:36:01.116Z,2.25
2019-02-12T02:40:06.508Z,2.12
2019-02-12T02:44:11.041Z,2.20
2019-02-12T02:48:15.590Z,2.42
2019-02-12T02:52:20.124Z,2.15
2019-02-12T02:56:24.708Z,2.12
2019-02-12T03:00:29.217Z,1.77
2019-02-12T03:04:33.760Z,1.87
2019-02-12T03:08:38.315Z,2.02
2019-02-12T03:12:42.866Z,1.65
2019-02-12T03:16:47.425Z,1.10
2019-02-12T03:20:51.961Z,0.93
2019-02-12T03:24:56.454Z,1.00
2019-02-12T03:32:49.963Z,1.07
2019-02-12T03:39:19.029Z,1.67
2019-02-12T03:43:23.628Z,0.73
2019-02-12T03:49:01.596Z,0.67
2019-02-12T03:57:48.379Z,1.20
2019-02-12T04:06:35.143Z,1.60
2019-02-12T04:10:39.651Z,1.92
2019-02-12T04:21:01.158Z,1.60
2019-02-12T04:25:05.670Z,1.07
2019-02-12T04:33:15.006Z,1.53
2019-02-12T04:37:19.553Z,1.65
2019-02-12T04:41:24.130Z,1.77
2019-02-12T04:45:28.616Z,1.72
2019-02-12T04:49:33.169Z,1.77
2019-02-12T04:53:37.691Z,2.08
2019-02-12T04:57:42.262Z,1.35
2019-02-12T05:01:47.206Z,1.55
2019-02-12T05:05:51.712Z,1.50
2019-02-12T05:09:56.568Z,1.62
2019-02-12T05:14:01.121Z,1.90
2019-02-12T05:18:05.653Z,1.63
2019-02-12T05:22:10.199Z,1.70
2019-02-12T05:26:14.708Z,1.75
2019-02-12T05:30:19.256Z,2.17
2019-02-12T05:34:23.788Z,1.60
2019-02-12T05:38:28.349Z,1.47
2019-02-12T05:42:32.880Z,1.85
2019-02-12T05:46:37.378Z,1.57
2019-02-12T05:50:41.936Z,1.75
2019-02-12T05:54:46.473Z,1.50
2019-02-12T05:58:51.000Z,1.67
2019-02-12T06:02:55.583Z,1.67
2019-02-12T06:07:00.095Z,1.62
2019-02-12T06:11:04.633Z,1.67
2019-02-12T06:15:09.267Z,1.40
2019-02-12T06:19:13.843Z,1.72
2019-02-12T06:23:18.373Z,1.90
2019-02-12T06:27:22.865Z,1.97
2019-02-12T06:31:27.408Z,1.57
2019-02-12T06:35:31.936Z,1.95
2019-02-12T06:39:36.472Z,2.00
2019-02-12T06:43:41.103Z,1.80
2019-02-12T06:47:45.615Z,1.90
2019-02-12T06:51:50.163Z,1.40
2019-02-12T06:55:54.707Z,1.45
2019-02-12T06:59:59.285Z,2.05
2019-02-12T07:04:10.400Z,1.57
2019-02-12T07:13:15.262Z,1.98
2019-02-12T07:18:03.654Z,1.70
2019-02-12T07:22:41.765Z,1.80
2019-02-12T07:27:13.183Z,1.67
2019-02-12T07:31:44.982Z,2.05
2019-02-12T07:36:33.316Z,1.70
2019-02-12T07:40:59.600Z,2.17
2019-02-12T07:45:42.974Z,2.00
2019-02-12T07:50:34.016Z,1.98
2019-02-12T07:54:46.385Z,3.80
2019-02-12T07:59:36.856Z,1.67
2019-02-12T08:04:02.202Z,1.75
2019-02-12T08:09:00.098Z,1.80
2019-02-12T08:17:55.320Z,1.95
2019-02-12T08:22:52.712Z,1.77
2019-02-12T08:27:35.375Z,1.80
2019-02-12T08:32:19.695Z,1.45
2019-02-12T08:37:01.503Z,1.50
2019-02-12T08:41:35.835Z,2.27
2019-02-12T08:46:19.413Z,2.50
2019-02-12T08:50:55.154Z,2.30
2019-02-12T08:55:39.143Z,1.80
2019-02-12T09:00:21.972Z,2.27
2019-02-12T09:05:01.526Z,2.30
2019-02-12T09:09:41.941Z,1.98
2019-02-12T09:13:58.224Z,1.90
2019-02-12T09:18:23.893Z,2.08
2019-02-12T09:23:21.640Z,2.27
2019-02-12T09:28:00.224Z,1.90
2019-02-12T09:32:38.394Z,2.33
2019-02-12T09:37:25.400Z,2.22
2019-02-12T09:42:23.648Z,2.70
2019-02-12T09:46:58.950Z,2.25
2019-02-12T09:51:52.509Z,1.80
2019-02-12T09:56:18.596Z,2.22
2019-02-12T10:00:57.459Z,2.02
2019-02-12T10:05:30.865Z,2.05
2019-02-12T10:10:16.838Z,1.17
2019-02-12T10:15:08.633Z,0.90
2019-02-12T10:19:28.007Z,0.80
2019-02-12T10:24:19.978Z,0.50
2019-02-12T10:29:04.075Z,1.60
2019-02-12T10:33:08.621Z,1.07
2019-02-12T10:37:13.224Z,1.93
2019-02-12T10:41:17.764Z,1.67
2019-02-12T10:45:22.321Z,1.40
2019-02-12T10:49:26.862Z,2.00
2019-02-12T10:53:31.408Z,1.93
2019-02-12T10:57:35.909Z,2.13
2019-02-12T11:01:40.503Z,1.60
2019-02-12T11:05:45.047Z,1.60
2019-02-12T11:09:49.604Z,1.60
2019-02-12T11:13:54.151Z,2.63
2019-02-12T11:17:58.660Z,1.57
2019-02-12T11:22:03.223Z,2.33
2019-02-12T11:26:07.756Z,1.70
2019-02-12T11:30:12.371Z,1.63
2019-02-12T11:34:16.876Z,2.07
2019-02-12T11:38:21.419Z,1.97
2019-02-12T11:42:25.988Z,2.27
2019-02-12T11:46:30.540Z,2.20
2019-02-12T11:50:35.035Z,2.10
2019-02-12T11:54:43.738Z,1.97
2019-02-12T11:58:45.815Z,1.83
2019-02-12T12:02:51.079Z,2.30
2019-02-12T12:06:55.611Z,2.27
2019-02-12T12:11:00.156Z,1.97
2019-02-12T12:15:04.997Z,1.47
2019-02-12T12:19:09.543Z,3.00
2019-02-12T12:23:14.097Z,2.10
2019-02-12T12:27:18.620Z,1.43
2019-02-12T12:34:21.519Z,1.57
2019-02-12T12:38:26.060Z,2.03
2019-02-12T12:42:30.604Z,1.80
2019-02-12T12:46:35.103Z,2.00
2019-02-12T12:50:39.634Z,3.67
2019-02-12T12:54:44.184Z,1.10
2019-02-12T12:58:48.722Z,1.03
2019-02-12T13:02:53.320Z,1.47
2019-02-12T13:10:15.844Z,1.90
2019-02-12T13:14:20.409Z,2.17
2019-02-12T13:18:24.983Z,1.83
2019-02-12T13:22:29.495Z,2.43
2019-02-12T13:26:34.036Z,1.97
2019-02-12T13:30:38.582Z,1.70
2019-02-12T13:34:43.127Z,1.90
2019-02-12T13:38:47.646Z,1.27
2019-02-12T13:42:52.151Z,1.87
2019-02-12T13:46:56.694Z,1.90
2019-02-12T13:51:01.232Z,1.90
2019-02-12T13:55:06.508Z,1.93
2019-02-12T13:59:11.044Z,2.90
2019-02-12T14:03:22.288Z,2.07
2019-02-12T14:07:21.749Z,2.40
2019-02-12T14:17:24.783Z,3.03
2019-02-12T14:21:29.348Z,2.70
2019-02-12T14:25:33.895Z,2.03
2019-02-12T14:29:38.452Z,2.23
2019-02-12T14:33:43.009Z,2.37
2019-02-12T14:37:47.551Z,2.83
2019-02-12T14:41:52.080Z,3.03
2019-02-12T14:49:41.021Z,3.20
2019-02-12T14:53:45.529Z,3.30
2019-02-12T14:57:50.084Z,2.80
2019-02-12T15:01:54.666Z,3.60
2019-02-12T15:05:59.190Z,3.20
2019-02-12T15:10:03.727Z,2.37
2019-02-12T15:14:08.224Z,3.47
2019-02-12T15:18:12.773Z,2.87
2019-02-12T15:22:17.364Z,2.90
2019-02-12T15:26:21.905Z,3.23
2019-02-12T15:30:26.445Z,3.47
2019-02-12T15:34:30.936Z,3.77
2019-02-12T15:38:35.473Z,3.97
2019-02-12T15:42:40.043Z,3.90
2019-02-12T15:46:44.580Z,4.40
2019-02-12T15:50:49.085Z,6.50
2019-02-12T15:54:53.604Z,5.83
2019-02-12T15:58:58.153Z,5.45
2019-02-12T16:03:02.729Z,4.83
2019-02-12T16:07:07.281Z,5.45
2019-02-12T16:11:11.792Z,5.80
2019-02-12T16:15:17.115Z,5.60
2019-02-12T16:19:21.651Z,5.83
2019-02-12T16:23:26.192Z,8.60
2019-02-12T16:27:30.756Z,19.10
2019-02-12T16:31:35.267Z,6.83
2019-02-12T16:35:39.895Z,6.78
2019-02-12T16:39:44.433Z,6.80
2019-02-12T16:43:49.069Z,5.90
2019-02-12T16:47:53.619Z,6.75
2019-02-12T16:51:58.125Z,6.97
2019-02-12T16:56:08.177Z,7.58
2019-02-12T17:00:14.460Z,7.47
2019-02-12T17:04:19.059Z,7.50
2019-02-12T17:08:23.573Z,7.37
2019-02-12T17:12:28.116Z,8.58
2019-02-12T17:16:32.647Z,7.87
2019-02-12T17:20:37.207Z,7.83
2019-02-12T17:24:41.745Z,11.18
2019-02-12T17:28:46.253Z,8.80
2019-02-12T17:32:50.789Z,9.08
2019-02-12T17:36:55.323Z,9.27
2019-02-12T17:40:59.878Z,9.75
2019-02-12T17:45:04.755Z,10.18
2019-02-12T17:49:09.264Z,10.43
2019-02-12T17:53:13.823Z,10.55
2019-02-12T17:57:18.382Z,10.48
2019-02-12T18:01:22.915Z,11.50
2019-02-12T18:05:27.502Z,10.70
2019-02-12T18:09:32.038Z,10.85
2019-02-12T18:13:36.567Z,10.80
2019-02-12T18:17:41.103Z,11.85
2019-02-12T18:21:45.655Z,10.77
2019-02-12T18:25:50.198Z,10.30
2019-02-12T18:29:55.047Z,11.20
2019-02-12T18:33:59.591Z,11.47
2019-02-12T18:38:04.166Z,11.38
2019-02-12T18:42:08.707Z,11.53
2019-02-12T18:46:13.220Z,13.60
2019-02-12T18:50:17.801Z,12.00
2019-02-12T18:54:22.335Z,12.05
2019-02-12T18:58:26.890Z,12.68
2019-02-12T19:02:31.452Z,11.43
2019-02-12T19:06:36.155Z,10.10
2019-02-12T19:13:58.744Z,12.03
2019-02-12T19:18:24.575Z,11.80
2019-02-12T19:22:29.117Z,12.03
2019-02-12T19:26:33.647Z,12.00
2019-02-12T19:30:38.203Z,12.23
2019-02-12T19:34:42.735Z,12.63
2019-02-12T19:38:47.276Z,12.55
2019-02-12T19:42:51.829Z,12.47
2019-02-12T19:46:56.327Z,13.00
2019-02-12T19:51:00.876Z,12.70
2019-02-12T19:55:05.717Z,13.40
2019-02-12T19:59:10.266Z,13.00
2019-02-12T20:03:14.872Z,13.47
2019-02-12T20:07:19.398Z,14.40
2019-02-12T20:11:23.937Z,14.93
2019-02-12T20:15:28.504Z,15.13
2019-02-12T20:19:33.070Z,14.73
2019-02-12T20:23:37.647Z,15.05
2019-02-12T20:27:42.460Z,15.07
2019-02-12T20:31:46.984Z,16.20
2019-02-12T20:35:51.556Z,25.32
2019-02-12T20:39:56.095Z,15.95
2019-02-12T20:44:00.641Z,16.53
2019-02-12T20:48:05.179Z,17.62
2019-02-12T20:52:09.828Z,17.02
2019-02-12T20:56:14.370Z,17.70
2019-02-12T21:00:22.238Z,16.85
2019-02-12T21:04:26.816Z,17.45
2019-02-12T21:08:33.081Z,18.20
2019-02-12T21:12:37.687Z,17.77
2019-02-12T21:16:42.230Z,18.17
2019-02-12T21:20:46.776Z,18.90
2019-02-12T21:24:51.367Z,18.23
2019-02-12T21:28:55.887Z,17.55
2019-02-12T21:33:00.412Z,18.10
2019-02-12T21:37:04.986Z,19.55
2019-02-12T21:41:11.275Z,19.00
2019-02-12T21:45:15.827Z,18.55
2019-02-12T21:49:20.691Z,18.30
2019-02-12T21:53:25.220Z,19.07
2019-02-12T21:57:31.675Z,18.70
2019-02-12T22:01:35.980Z,18.98
2019-02-12T22:05:40.545Z,19.30
2019-02-12T22:09:45.062Z,17.85
2019-02-12T22:13:49.614Z,18.50
2019-02-12T22:17:54.254Z,19.20
2019-02-12T22:21:58.810Z,19.60
2019-02-12T22:26:03.318Z,20.88
2019-02-12T22:30:14.151Z,25.12
2019-02-12T22:34:18.686Z,34.33
2019-02-12T22:38:23.288Z,23.77
2019-02-12T22:42:27.923Z,25.30
2019-02-12T22:46:32.430Z,27.93
2019-02-12T22:50:36.968Z,26.20
2019-02-12T22:54:41.504Z,21.27
2019-02-12T22:58:46.053Z,20.45
2019-02-12T23:02:50.743Z,19.77
2019-02-12T23:06:55.254Z,21.10
2019-02-12T23:10:59.827Z,20.85
2019-02-12T23:15:05.760Z,20.35
2019-02-12T23:19:10.314Z,20.62
2019-02-12T23:23:14.859Z,20.53
2019-02-12T23:27:19.391Z,20.82
2019-02-12T23:31:23.947Z,21.62
2019-02-12T23:35:28.485Z,21.87
2019-02-12T23:39:33.092Z,21.33
2019-02-12T23:43:37.723Z,21.57
2019-02-12T23:47:42.215Z,21.62
2019-02-12T23:51:46.786Z,22.15
2019-02-12T23:55:51.316Z,22.77
2019-02-12T23:59:55.863Z,21.75
